Terminal Aerodrome Forecast
Issued by NWS Sterling, VA

Home | Current Version | Previous Version | Text Only | Print | Product List | Glossary On
Versions: 1 2 3 4 5 6 7 8 9 10 11 12 13 14
000
FTUS41 KLWX 241100
TAFCHO
TAF
KCHO 241132Z 2412/2512 VRB04KT P6SM FEW250
     FM241800 18005KT P6SM SCT250
     FM250000 VRB03KT P6SM SCT250
     FM250900 VRB03KT P6SM BKN050=

USA.gov is the U.S. government's official web portal to all federal, state and local government web resources and services.